createdAt,value
2022-10-17T00:00:14.759Z,96207.27
2022-10-17T00:02:41.090Z,96205.26
2022-10-17T00:05:07.444Z,96205.26
2022-10-17T00:07:33.774Z,96213.34
2022-10-17T00:10:00.141Z,96207.84
2022-10-17T00:12:26.461Z,96217.41
2022-10-17T00:14:55.008Z,96216.12
2022-10-17T00:17:21.342Z,96217.06
2022-10-17T00:19:47.695Z,96209.78
2022-10-17T00:22:14.025Z,96215.31
2022-10-17T00:24:40.369Z,96218.81
2022-10-17T00:27:06.709Z,96221.94
2022-10-17T00:29:33.054Z,96222.31
2022-10-17T00:31:59.418Z,96222.31
2022-10-17T00:34:25.738Z,96218.55
2022-10-17T00:36:52.083Z,96219.92
2022-10-17T00:39:18.425Z,96226.75
2022-10-17T00:41:44.754Z,96226.75
2022-10-17T00:44:11.107Z,96223.38
2022-10-17T00:46:37.450Z,96229.33
2022-10-17T00:49:03.788Z,96238.52
2022-10-17T00:51:30.123Z,96238.52
2022-10-17T00:53:56.464Z,96231.69
2022-10-17T00:56:22.812Z,96235.56
2022-10-17T00:58:49.161Z,96236.02
2022-10-17T01:01:15.541Z,96232.61
2022-10-17T01:03:41.838Z,96230.52
2022-10-17T01:06:08.181Z,96230.59
2022-10-17T01:08:34.549Z,96231.05
2022-10-17T01:11:00.922Z,96230.22
2022-10-17T01:13:27.258Z,96231.97
2022-10-17T01:15:53.874Z,96228.09
2022-10-17T01:18:20.218Z,96229.39
2022-10-17T01:20:46.562Z,96233.75
2022-10-17T01:23:12.937Z,96234.20
2022-10-17T01:25:39.289Z,96223.13
2022-10-17T01:28:05.625Z,96223.96
2022-10-17T01:30:31.976Z,96223.13
2022-10-17T01:32:58.322Z,96224.91
2022-10-17T01:35:25.784Z,96227.94
2022-10-17T01:40:17.392Z,96231.44
2022-10-17T01:42:43.731Z,96233.56
2022-10-17T01:45:12.473Z,96233.56
2022-10-17T01:47:38.809Z,96235.30
2022-10-17T01:50:05.182Z,96235.87
2022-10-17T01:52:31.529Z,96243.50
2022-10-17T01:54:57.868Z,96237.24
2022-10-17T01:57:24.211Z,96236.87
2022-10-17T01:59:50.549Z,96234.28
2022-10-17T02:02:16.906Z,96241.22
2022-10-17T02:04:45.694Z,96248.12
2022-10-17T02:07:12.047Z,96248.12
2022-10-17T02:09:38.391Z,96248.66
2022-10-17T02:12:04.741Z,96250.79
2022-10-17T02:14:31.076Z,96243.61
2022-10-17T02:16:57.418Z,96249.61
2022-10-17T02:19:23.763Z,96243.23
2022-10-17T02:21:50.147Z,96245.36
2022-10-17T02:24:16.493Z,96251.81
2022-10-17T02:26:42.833Z,96249.42
2022-10-17T02:29:09.173Z,96259.63
2022-10-17T02:31:35.523Z,96253.37
2022-10-17T02:34:01.881Z,96258.18
2022-10-17T02:36:28.234Z,96259.55
2022-10-17T02:38:54.580Z,96265.09
2022-10-17T02:41:20.965Z,96257.08
2022-10-17T02:43:47.273Z,96257.88
2022-10-17T02:46:13.614Z,96258.83
2022-10-17T02:48:39.955Z,96261.48
2022-10-17T02:51:06.300Z,96263.16
2022-10-17T02:53:32.641Z,96269.59
2022-10-17T02:55:58.987Z,96268.39
2022-10-17T02:58:25.331Z,96264.63
2022-10-17T03:00:51.745Z,96275.33
2022-10-17T03:03:18.012Z,96279.65
2022-10-17T03:05:44.345Z,96277.60
2022-10-17T03:08:10.708Z,96284.88
2022-10-17T03:10:37.050Z,96281.58
2022-10-17T03:13:03.402Z,96281.95
2022-10-17T03:15:29.757Z,96289.20
2022-10-17T03:17:56.106Z,96293.72
2022-10-17T03:20:22.449Z,96291.63
2022-10-17T03:22:48.801Z,96291.06
2022-10-17T03:25:15.160Z,96289.84
2022-10-17T03:27:41.507Z,96292.99
2022-10-17T03:30:07.873Z,96292.08
2022-10-17T03:32:34.255Z,96292.16
2022-10-17T03:35:00.593Z,96293.62
2022-10-17T03:37:27.164Z,96294.01
2022-10-17T03:39:53.281Z,96297.05
2022-10-17T03:42:19.632Z,96299.06
2022-10-17T03:44:45.979Z,96298.34
2022-10-17T03:47:14.164Z,96301.93
2022-10-17T03:49:38.695Z,96292.51
2022-10-17T03:52:05.040Z,96292.51
2022-10-17T03:54:31.384Z,96304.13
2022-10-17T03:56:58.958Z,96308.00
2022-10-17T03:59:24.081Z,96313.16
2022-10-17T04:01:50.430Z,96315.28
2022-10-17T04:04:16.776Z,96307.55
2022-10-17T04:06:43.116Z,96310.50
2022-10-17T04:09:10.446Z,96311.80
2022-10-17T04:11:35.829Z,96310.13
2022-10-17T04:14:02.212Z,96315.17
2022-10-17T04:16:28.572Z,96317.30
2022-10-17T04:18:54.901Z,96312.70
2022-10-17T04:21:21.249Z,96314.38
2022-10-17T04:23:47.602Z,96317.75
2022-10-17T04:26:13.953Z,96315.92
2022-10-17T04:28:40.324Z,96314.17
2022-10-17T04:31:06.660Z,96322.29
2022-10-17T04:33:33.037Z,96320.17
2022-10-17T04:35:59.379Z,96321.73
2022-10-17T04:38:28.423Z,96325.59
2022-10-17T04:40:52.068Z,96323.93
2022-10-17T04:43:18.412Z,96329.84
2022-10-17T04:45:44.765Z,96324.69
2022-10-17T04:48:11.105Z,96328.55
2022-10-17T04:50:37.460Z,96331.14
2022-10-17T04:53:03.788Z,96331.14
2022-10-17T04:55:30.132Z,96330.75
2022-10-17T04:57:56.469Z,96332.77
2022-10-17T05:00:22.825Z,96339.67
2022-10-17T05:02:49.158Z,96338.39
2022-10-17T05:05:15.515Z,96337.58
2022-10-17T05:07:41.858Z,96340.44
2022-10-17T05:10:08.207Z,96346.50
2022-10-17T05:12:34.606Z,96345.14
2022-10-17T05:15:00.957Z,96349.92
2022-10-17T05:17:27.301Z,96354.62
2022-10-17T05:19:53.648Z,96364.03
2022-10-17T05:22:20.022Z,96364.10
2022-10-17T05:24:46.365Z,96356.82
2022-10-17T05:27:12.710Z,96363.27
2022-10-17T05:29:39.059Z,96371.00
2022-10-17T05:32:05.403Z,96366.13
2022-10-17T05:34:31.787Z,96368.88
2022-10-17T05:36:58.085Z,96372.22
2022-10-17T05:39:24.439Z,96376.44
2022-10-17T05:41:50.784Z,96371.77
2022-10-17T05:44:17.522Z,96371.66
2022-10-17T05:46:43.859Z,96373.78
2022-10-17T05:49:19.449Z,96376.36
2022-10-17T05:51:36.614Z,96378.49
2022-10-17T05:54:02.903Z,96378.03
2022-10-17T05:56:29.246Z,96375.35
2022-10-17T05:59:00.663Z,96384.38
2022-10-17T06:01:21.977Z,96386.95
2022-10-17T06:03:48.327Z,96389.08
2022-10-17T06:06:14.665Z,96393.33
2022-10-17T06:08:41.009Z,96390.75
2022-10-17T06:11:09.941Z,96391.66
2022-10-17T06:13:33.701Z,96367.60
2022-10-17T06:16:00.054Z,96398.84
2022-10-17T06:18:26.434Z,96404.77
2022-10-17T06:20:52.777Z,96406.13
2022-10-17T06:23:19.158Z,96406.58
2022-10-17T06:25:45.503Z,96413.79
2022-10-17T06:28:11.880Z,96418.31
2022-10-17T06:30:38.221Z,96417.48
2022-10-17T06:33:04.585Z,96423.37
2022-10-17T06:35:30.929Z,96424.28
2022-10-17T06:37:57.281Z,96431.39
2022-10-17T06:40:23.644Z,96428.53
2022-10-17T06:42:49.999Z,96431.49
2022-10-17T06:45:16.340Z,96432.67
2022-10-17T06:47:42.702Z,96432.33
2022-10-17T06:50:09.041Z,96424.59
2022-10-17T06:52:35.405Z,96431.11
2022-10-17T06:57:28.413Z,96428.73
2022-10-17T06:59:54.481Z,96429.91
2022-10-17T07:02:20.837Z,96425.97
2022-10-17T07:04:47.193Z,96431.52
2022-10-17T07:07:13.585Z,96431.52
2022-10-17T07:09:39.879Z,96431.41
2022-10-17T07:12:06.221Z,96428.93
2022-10-17T07:14:32.570Z,96427.91
2022-10-17T07:16:58.920Z,96433.45
2022-10-17T07:19:25.267Z,96436.84
2022-10-17T07:21:51.633Z,96443.88
2022-10-17T07:24:17.977Z,96432.72
2022-10-17T07:26:44.335Z,96429.68
2022-10-17T07:29:10.676Z,96439.09
2022-10-17T07:31:37.026Z,96445.44
2022-10-17T07:34:03.478Z,96438.73
2022-10-17T07:36:29.792Z,96433.27
2022-10-17T07:38:56.145Z,96431.90
2022-10-17T07:41:22.488Z,96440.47
2022-10-17T07:43:48.829Z,96445.25
2022-10-17T07:46:15.274Z,96441.00
2022-10-17T07:48:41.619Z,96440.37
2022-10-17T07:51:07.963Z,96442.95
2022-10-17T07:53:34.310Z,96443.25
2022-10-17T07:56:00.674Z,96441.48
2022-10-17T07:58:27.009Z,96439.73
2022-10-17T08:00:53.500Z,96443.25
2022-10-17T08:03:19.750Z,96438.40
2022-10-17T08:05:46.106Z,96438.30
2022-10-17T08:08:12.450Z,96431.30
2022-10-17T08:10:38.804Z,96433.05
2022-10-17T08:13:05.144Z,96428.16
2022-10-17T08:15:32.162Z,96425.13
2022-10-17T08:17:57.888Z,96423.38
2022-10-17T08:20:24.256Z,96418.22
2022-10-17T08:22:50.614Z,96425.39
2022-10-17T08:25:18.196Z,96414.69
2022-10-17T08:27:43.323Z,96418.48
2022-10-17T08:30:09.726Z,96419.33
2022-10-17T08:32:36.077Z,96419.59
2022-10-17T08:35:02.431Z,96419.70
2022-10-17T08:37:29.150Z,96420.81
2022-10-17T08:39:55.134Z,96422.09
2022-10-17T08:42:21.479Z,96423.01
2022-10-17T08:44:47.827Z,96421.27
2022-10-17T08:47:14.201Z,96420.70
2022-10-17T08:49:40.593Z,96420.63
2022-10-17T08:52:06.928Z,96415.73
2022-10-17T08:54:34.594Z,96420.44
2022-10-17T08:56:59.634Z,96419.80
2022-10-17T08:59:25.979Z,96418.58
2022-10-17T09:01:52.319Z,96421.09
2022-10-17T09:04:18.743Z,96424.47
2022-10-17T09:06:45.044Z,96420.06
2022-10-17T09:09:11.403Z,96422.00
2022-10-17T09:11:37.772Z,96422.00
2022-10-17T09:14:04.102Z,96422.00
2022-10-17T09:16:30.440Z,96421.63
2022-10-17T09:18:56.801Z,96415.36
2022-10-17T09:21:23.169Z,96422.46
2022-10-17T09:23:49.511Z,96421.89
2022-10-17T09:26:15.862Z,96421.89
2022-10-17T09:28:42.601Z,96419.50
2022-10-17T09:31:08.859Z,96420.72
2022-10-17T09:33:52.958Z,96421.17
2022-10-17T09:36:02.754Z,96418.13
2022-10-17T09:38:27.910Z,96415.81
2022-10-17T09:40:57.014Z,96418.02
2022-10-17T09:43:20.583Z,96422.35
2022-10-17T09:45:46.928Z,96419.77
2022-10-17T09:48:13.272Z,96413.31
2022-10-17T09:50:39.608Z,96413.13
2022-10-17T09:53:05.958Z,96410.84
2022-10-17T09:55:32.304Z,96410.92
2022-10-17T09:57:58.656Z,96400.33
2022-10-17T10:00:25.021Z,96406.86
2022-10-17T10:02:51.333Z,96405.56
2022-10-17T10:05:17.675Z,96399.03
2022-10-17T10:07:44.040Z,96402.27
2022-10-17T10:10:10.380Z,96388.59
2022-10-17T10:12:38.064Z,96388.59
2022-10-17T10:15:03.064Z,96395.77
2022-10-17T10:17:29.410Z,96394.32
2022-10-17T10:19:55.755Z,96391.55
2022-10-17T10:22:22.118Z,96384.52
2022-10-17T10:24:48.452Z,96388.00
2022-10-17T10:27:14.799Z,96388.00
2022-10-17T10:29:41.143Z,96376.00
2022-10-17T10:32:07.488Z,96376.38
2022-10-17T10:34:33.845Z,96377.78
2022-10-17T10:37:00.218Z,96369.55
2022-10-17T10:39:26.607Z,96365.13
2022-10-17T10:41:52.951Z,96367.52
2022-10-17T10:44:19.288Z,96367.52
2022-10-17T10:46:45.676Z,96362.55
2022-10-17T10:49:12.020Z,96361.44
2022-10-17T10:51:38.397Z,96354.23
2022-10-17T10:54:04.736Z,96354.23
2022-10-17T10:56:31.115Z,96327.30
2022-10-17T10:58:57.446Z,96327.30
2022-10-17T11:01:23.796Z,96359.15
2022-10-17T11:03:50.252Z,96350.37
2022-10-17T11:06:16.484Z,96344.10
2022-10-17T11:08:42.833Z,96339.57
2022-10-17T11:11:09.181Z,96336.41
2022-10-17T11:13:35.651Z,96338.55
2022-10-17T11:16:02.005Z,96326.26
2022-10-17T11:18:28.341Z,96326.26
2022-10-17T11:20:54.684Z,96318.50
2022-10-17T11:23:21.029Z,96324.28
2022-10-17T11:25:47.369Z,96324.28
2022-10-17T11:28:13.705Z,96320.33
2022-10-17T11:30:40.104Z,96312.91
2022-10-17T11:33:06.395Z,96312.91
2022-10-17T11:35:32.743Z,96308.27
2022-10-17T11:37:59.081Z,96313.63
2022-10-17T11:40:25.441Z,96304.15
2022-10-17T11:42:51.790Z,96313.78
2022-10-17T11:45:18.140Z,96305.97
2022-10-17T11:47:44.490Z,96305.97
2022-10-17T11:52:57.140Z,96300.73
2022-10-17T11:55:07.012Z,96285.83
2022-10-17T11:57:33.403Z,96293.42
2022-10-17T11:59:59.756Z,96293.42
2022-10-17T12:02:26.099Z,96279.89
2022-10-17T12:04:52.468Z,96296.70
2022-10-17T12:07:18.843Z,96292.53
2022-10-17T12:09:45.134Z,96296.17
2022-10-17T12:12:11.483Z,96286.74
2022-10-17T12:14:37.849Z,96288.67
2022-10-17T12:17:04.163Z,96288.67
2022-10-17T12:19:30.501Z,96295.51
2022-10-17T12:21:56.883Z,96291.45
2022-10-17T12:24:23.263Z,96278.53
2022-10-17T12:26:49.606Z,96273.14
2022-10-17T12:29:15.946Z,96299.84
2022-10-17T12:31:42.301Z,96269.17
2022-10-17T12:34:08.657Z,96284.53
2022-10-17T12:36:35.016Z,96278.56
2022-10-17T12:39:01.373Z,96282.03
2022-10-17T12:41:27.706Z,96284.44
2022-10-17T12:43:54.052Z,96284.44
2022-10-17T12:46:20.388Z,96276.77
2022-10-17T12:48:46.743Z,96276.77
2022-10-17T12:53:39.454Z,96277.97
2022-10-17T12:56:05.817Z,96279.27
2022-10-17T12:58:32.155Z,96279.27
2022-10-17T13:01:23.089Z,96278.23
2022-10-17T13:03:24.844Z,96267.05
2022-10-17T13:05:51.185Z,96276.93
2022-10-17T13:08:17.527Z,96283.03
2022-10-17T13:10:43.866Z,96272.68
2022-10-17T13:13:10.211Z,96261.38
2022-10-17T13:15:36.554Z,96276.19
2022-10-17T13:18:02.905Z,96241.10
2022-10-17T13:20:31.459Z,96270.39
2022-10-17T13:22:55.599Z,96269.00
2022-10-17T13:25:22.231Z,96246.94
2022-10-17T13:27:48.573Z,96261.05
2022-10-17T13:30:14.915Z,96269.38
2022-10-17T13:32:41.256Z,96272.89
2022-10-17T13:35:07.642Z,96271.89
2022-10-17T13:37:33.990Z,96274.89
2022-10-17T13:40:11.476Z,96272.60
2022-10-17T13:42:27.045Z,96275.69
2022-10-17T13:44:53.051Z,96275.69
2022-10-17T13:49:45.745Z,96270.51
2022-10-17T13:52:12.086Z,96264.63
2022-10-17T13:54:38.431Z,96266.00
2022-10-17T13:57:04.772Z,96272.01
2022-10-17T13:59:31.112Z,96256.91
2022-10-17T14:01:57.603Z,96256.91
2022-10-17T14:04:23.818Z,96269.30
2022-10-17T14:06:52.295Z,96273.97
2022-10-17T14:09:16.525Z,96272.01
2022-10-17T14:11:42.869Z,96272.38
2022-10-17T14:14:09.212Z,96259.95
2022-10-17T14:16:35.556Z,96276.93
2022-10-17T14:19:01.893Z,96279.56
2022-10-17T14:21:40.878Z,96282.98
2022-10-17T14:23:54.584Z,96283.19
2022-10-17T14:26:20.953Z,96284.57
2022-10-17T14:28:47.299Z,96283.74
2022-10-17T14:31:13.705Z,96281.52
2022-10-17T14:33:42.617Z,96279.86
2022-10-17T14:36:06.389Z,96282.31
2022-10-17T14:38:32.729Z,96286.66
2022-10-17T14:41:15.400Z,96286.28
2022-10-17T14:43:25.455Z,96289.86
2022-10-17T14:45:51.784Z,96289.03
2022-10-17T14:48:18.135Z,96285.45
2022-10-17T14:53:10.817Z,96297.00
2022-10-17T14:55:37.163Z,96297.00
2022-10-17T14:58:03.509Z,96283.16
2022-10-17T15:00:29.868Z,96302.55
2022-10-17T15:02:56.275Z,96303.84
2022-10-17T15:05:22.535Z,96303.84
2022-10-17T15:07:48.899Z,96306.42
2022-10-17T15:10:15.282Z,96304.48
2022-10-17T15:12:51.067Z,96304.48
2022-10-17T15:15:07.992Z,96308.64
2022-10-17T15:17:35.468Z,96310.48
2022-10-17T15:20:00.711Z,96311.48
2022-10-17T15:22:27.186Z,96316.41
2022-10-17T15:24:53.747Z,96312.44
2022-10-17T15:27:20.094Z,96316.61
2022-10-17T15:29:46.427Z,96318.36
2022-10-17T15:32:12.773Z,96320.48
2022-10-17T15:34:39.108Z,96320.48
2022-10-17T15:37:05.459Z,96321.33
2022-10-17T15:39:31.793Z,96324.00
2022-10-17T15:41:58.129Z,96326.78
2022-10-17T15:44:24.471Z,96329.03
2022-10-17T15:46:50.826Z,96298.64
2022-10-17T15:49:17.188Z,96334.20
2022-10-17T15:51:43.521Z,96316.67
2022-10-17T15:54:09.947Z,96316.67
2022-10-17T15:56:36.214Z,96338.62
2022-10-17T15:59:02.533Z,96343.59
2022-10-17T16:01:28.904Z,96347.12
2022-10-17T16:03:55.262Z,96347.12
2022-10-17T16:06:21.598Z,96352.02
2022-10-17T16:08:47.937Z,96357.48
2022-10-17T16:11:14.272Z,96363.11
2022-10-17T16:13:40.627Z,96365.70
2022-10-17T16:16:06.975Z,96364.69
2022-10-17T16:18:33.303Z,96370.12
2022-10-17T16:20:59.648Z,96375.29
2022-10-17T16:23:25.982Z,96380.58
2022-10-17T16:25:52.325Z,96378.08
2022-10-17T16:28:18.697Z,96383.70
2022-10-17T16:30:45.096Z,96385.48
2022-10-17T16:33:11.370Z,96398.42
2022-10-17T16:35:37.905Z,96398.73
2022-10-17T16:38:04.063Z,96370.54
2022-10-17T16:40:30.396Z,96393.31
2022-10-17T16:42:56.733Z,96397.78
2022-10-17T16:45:23.077Z,96401.75
2022-10-17T16:47:49.416Z,96400.91
2022-10-17T16:50:15.752Z,96413.12
2022-10-17T16:52:42.104Z,96402.86
2022-10-17T16:55:08.447Z,96381.88
2022-10-17T16:57:35.803Z,96408.52
2022-10-17T17:00:01.121Z,96400.41
2022-10-17T17:02:27.496Z,96420.22
2022-10-17T17:04:53.833Z,96420.22
2022-10-17T17:07:20.164Z,96420.96
2022-10-17T17:09:46.502Z,96424.39
2022-10-17T17:12:12.838Z,96420.88
2022-10-17T17:14:39.183Z,96434.18
2022-10-17T17:17:05.524Z,96428.26
2022-10-17T17:19:31.867Z,96422.38
2022-10-17T17:21:58.243Z,96436.98
2022-10-17T17:24:24.581Z,96436.03
2022-10-17T17:26:50.946Z,96433.30
2022-10-17T17:29:17.290Z,96445.27
2022-10-17T17:31:43.626Z,96444.09
2022-10-17T17:34:12.011Z,96449.06
2022-10-17T17:36:36.338Z,96448.61
2022-10-17T17:39:02.689Z,96437.71
2022-10-17T17:41:29.015Z,96453.78
2022-10-17T17:43:55.360Z,96458.31
2022-10-17T17:46:21.701Z,96462.92
2022-10-17T17:48:48.048Z,96460.53
2022-10-17T17:51:14.385Z,96458.05
2022-10-17T17:53:40.726Z,96448.18
2022-10-17T17:56:07.164Z,96448.18
2022-10-17T17:58:33.402Z,96461.17
2022-10-17T18:00:59.804Z,96459.89
2022-10-17T18:03:26.083Z,96459.81
2022-10-17T18:05:52.420Z,96468.66
2022-10-17T18:08:18.760Z,96468.66
2022-10-17T18:10:45.092Z,96471.25
2022-10-17T18:13:11.435Z,96455.48
2022-10-17T18:15:37.764Z,96469.31
2022-10-17T18:18:04.103Z,96470.72
2022-10-17T18:20:30.439Z,96470.72
2022-10-17T18:23:00.492Z,96473.84
2022-10-17T18:25:23.109Z,96455.59
2022-10-17T18:27:49.455Z,96455.59
2022-10-17T18:30:15.815Z,96471.63
2022-10-17T18:32:42.130Z,96465.36
2022-10-17T18:35:08.494Z,96467.48
2022-10-17T18:37:34.883Z,96460.35
2022-10-17T18:40:01.163Z,96471.25
2022-10-17T18:42:27.718Z,96471.25
2022-10-17T18:44:53.855Z,96475.78
2022-10-17T18:50:05.451Z,96469.39
2022-10-17T18:52:31.798Z,96469.39
2022-10-17T18:54:58.139Z,96452.79
2022-10-17T18:57:26.175Z,96477.79
2022-10-17T18:59:50.849Z,96475.20
2022-10-17T19:02:17.185Z,96470.23
2022-10-17T19:04:43.618Z,96483.41
2022-10-17T19:07:09.896Z,96492.00
2022-10-17T19:09:36.231Z,96485.66
2022-10-17T19:12:02.574Z,96476.69
2022-10-17T19:14:28.914Z,96476.69
2022-10-17T19:16:55.258Z,96468.28
2022-10-17T19:19:21.601Z,96477.63
2022-10-17T19:21:47.973Z,96496.63
2022-10-17T19:24:14.315Z,96496.98
2022-10-17T19:26:40.656Z,96498.45
2022-10-17T19:29:07.029Z,96483.70
2022-10-17T19:31:33.344Z,96487.02
2022-10-17T19:33:59.675Z,96491.00
2022-10-17T19:36:28.926Z,96494.88
2022-10-17T19:38:52.369Z,96483.33
2022-10-17T19:41:18.722Z,96483.33
2022-10-17T19:43:45.066Z,96493.21
2022-10-17T19:46:11.407Z,96486.83
2022-10-17T19:48:37.741Z,96491.54
2022-10-17T19:51:04.093Z,96500.69
2022-10-17T19:53:30.437Z,96483.44
2022-10-17T19:55:56.772Z,96483.44
2022-10-17T19:58:23.120Z,96491.65
2022-10-17T20:00:49.460Z,96469.86
2022-10-17T20:03:15.794Z,96491.72
2022-10-17T20:05:42.135Z,96505.55
2022-10-17T20:08:08.501Z,96505.55
2022-10-17T20:10:34.855Z,96510.72
2022-10-17T20:13:01.189Z,96509.27
2022-10-17T20:15:27.531Z,96496.72
2022-10-17T20:17:53.871Z,96496.72
2022-10-17T20:20:20.397Z,96509.27
2022-10-17T20:22:46.728Z,96508.51
2022-10-17T20:25:13.126Z,96508.51
2022-10-17T20:27:39.454Z,96512.77
2022-10-17T20:30:05.798Z,96508.51
2022-10-17T20:32:32.474Z,96488.39
2022-10-17T20:34:58.477Z,96488.39
2022-10-17T20:37:24.816Z,96501.70
2022-10-17T20:40:00.016Z,96495.78
2022-10-17T20:42:17.488Z,96495.78
2022-10-17T20:47:16.302Z,96488.14
2022-10-17T20:49:36.501Z,96478.70
2022-10-17T20:52:02.842Z,96493.38
2022-10-17T20:54:29.177Z,96495.05
2022-10-17T20:56:55.509Z,96492.47
2022-10-17T20:59:21.846Z,96479.66
2022-10-17T21:01:48.210Z,96491.63
2022-10-17T21:04:44.882Z,96491.63
2022-10-17T21:06:40.923Z,96496.07
2022-10-17T21:09:07.289Z,96495.61
2022-10-17T21:11:33.671Z,96493.95
2022-10-17T21:13:59.998Z,96493.95
2022-10-17T21:16:26.329Z,96495.23
2022-10-17T21:18:52.674Z,96481.13
2022-10-17T21:21:19.003Z,96483.70
2022-10-17T21:23:45.344Z,96475.48
2022-10-17T21:26:11.682Z,96490.60
2022-10-17T21:28:38.068Z,96490.60
2022-10-17T21:31:04.369Z,96483.80
2022-10-17T21:33:30.705Z,96486.00
2022-10-17T21:35:57.043Z,96488.58
2022-10-17T21:38:23.385Z,96478.70
2022-10-17T21:40:51.466Z,96475.84
2022-10-17T21:43:16.083Z,96489.60
2022-10-17T21:45:42.422Z,96489.60
2022-10-17T21:48:13.079Z,96475.95
2022-10-17T21:50:35.102Z,96478.53
2022-10-17T21:53:01.447Z,96478.53
2022-10-17T21:55:27.813Z,96486.75
2022-10-17T21:57:54.159Z,96487.20
2022-10-17T22:00:20.504Z,96486.75
2022-10-17T22:02:46.841Z,96471.77
2022-10-17T22:05:13.175Z,96471.77
2022-10-17T22:07:39.556Z,96483.78
2022-10-17T22:10:05.880Z,96472.98
2022-10-17T22:12:32.564Z,96472.98
2022-10-17T22:14:58.631Z,96481.20
2022-10-17T22:17:24.978Z,96475.84
2022-10-17T22:19:51.419Z,96477.13
2022-10-17T22:22:17.755Z,96479.64
2022-10-17T22:24:44.095Z,96483.52
2022-10-17T22:27:10.440Z,96487.00
2022-10-17T22:29:36.774Z,96470.33
2022-10-17T22:32:03.106Z,96476.78
2022-10-17T22:34:29.445Z,96476.78
2022-10-17T22:36:55.781Z,96461.00
2022-10-17T22:39:22.195Z,96478.61
2022-10-17T22:41:48.530Z,96476.94
2022-10-17T22:44:14.892Z,96476.94
2022-10-17T22:46:41.229Z,96472.26
2022-10-17T22:49:07.572Z,96475.64
2022-10-17T22:51:33.918Z,96475.75
2022-10-17T22:54:00.259Z,96472.34
2022-10-17T22:56:26.602Z,96475.75
2022-10-17T22:58:52.940Z,96475.75
2022-10-17T23:01:19.291Z,96465.98
2022-10-17T23:03:45.604Z,96469.02
2022-10-17T23:06:11.959Z,96469.02
2022-10-17T23:08:38.320Z,96458.77
2022-10-17T23:11:04.666Z,96460.06
2022-10-17T23:13:31.091Z,96463.73
2022-10-17T23:15:57.470Z,96454.61
2022-10-17T23:18:23.857Z,96452.14
2022-10-17T23:20:50.186Z,96452.14
2022-10-17T23:23:16.496Z,96466.63
2022-10-17T23:25:42.838Z,96463.28
2022-10-17T23:28:09.179Z,96467.53
2022-10-17T23:30:35.518Z,96456.37
2022-10-17T23:33:01.859Z,96451.30
2022-10-17T23:35:28.194Z,96450.02
2022-10-17T23:37:54.529Z,96447.43
2022-10-17T23:40:20.880Z,96448.54
2022-10-17T23:42:47.211Z,96453.52
2022-10-17T23:45:13.576Z,96460.43
2022-10-17T23:47:39.911Z,96445.85
2022-10-17T23:50:06.253Z,96445.85
2022-10-17T23:52:32.599Z,96429.59
2022-10-17T23:54:58.940Z,96429.59
2022-10-17T23:57:25.279Z,96446.34
2022-10-17T23:59:51.614Z,96447.33
